createdAt,value
2022-09-27T00:00:39.419Z,0.00
2022-09-27T00:01:39.466Z,0.00
2022-09-27T00:02:39.466Z,0.00
2022-09-27T00:03:39.426Z,0.00
2022-09-27T00:04:39.391Z,0.00
2022-09-27T00:05:40.390Z,0.00
2022-09-27T00:06:41.003Z,0.00
2022-09-27T00:07:39.423Z,0.00
2022-09-27T00:08:39.330Z,0.00
2022-09-27T00:09:39.327Z,0.00
2022-09-27T00:10:39.321Z,0.00
2022-09-27T00:11:39.371Z,0.00
2022-09-27T00:12:39.319Z,0.00
2022-09-27T00:13:39.800Z,0.00
2022-09-27T00:14:39.241Z,0.00
2022-09-27T00:15:39.312Z,0.00
2022-09-27T00:16:39.262Z,0.00
2022-09-27T00:17:39.236Z,0.00
2022-09-27T00:18:39.215Z,0.00
2022-09-27T00:19:39.231Z,0.00
2022-09-27T00:20:39.203Z,0.00
2022-09-27T00:21:39.199Z,0.00
2022-09-27T00:22:40.215Z,0.00
2022-09-27T00:23:39.219Z,0.00
2022-09-27T00:24:39.202Z,0.00
2022-09-27T00:25:39.200Z,0.00
2022-09-27T00:26:40.780Z,0.00
2022-09-27T00:27:39.144Z,0.00
2022-09-27T00:28:39.139Z,0.00
2022-09-27T00:29:39.144Z,0.00
2022-09-27T00:30:39.208Z,0.00
2022-09-27T00:31:39.138Z,0.00
2022-09-27T00:32:39.187Z,0.00
2022-09-27T00:33:39.071Z,0.00
2022-09-27T00:34:39.116Z,0.00
2022-09-27T00:35:39.000Z,0.00
2022-09-27T00:36:39.035Z,0.00
2022-09-27T00:37:39.036Z,0.00
2022-09-27T00:38:39.016Z,0.00
2022-09-27T00:39:38.976Z,0.00
2022-09-27T00:40:39.055Z,0.00
2022-09-27T00:41:39.016Z,0.00
2022-09-27T00:42:38.956Z,0.00
2022-09-27T00:43:39.065Z,0.00
2022-09-27T00:44:38.941Z,0.00
2022-09-27T00:45:38.897Z,0.00
2022-09-27T00:46:38.981Z,0.00
2022-09-27T00:47:39.368Z,0.00
2022-09-27T00:48:38.912Z,0.00
2022-09-27T00:49:38.904Z,0.00
2022-09-27T00:50:38.881Z,0.00
2022-09-27T00:51:38.852Z,0.00
2022-09-27T00:52:38.858Z,0.00
2022-09-27T00:53:38.813Z,0.00
2022-09-27T00:54:38.866Z,0.00
2022-09-27T00:55:38.850Z,0.00
2022-09-27T00:56:38.820Z,0.00
2022-09-27T00:57:39.028Z,0.00
2022-09-27T00:58:38.772Z,0.00
2022-09-27T00:59:38.794Z,0.00
2022-09-27T01:00:38.752Z,0.00
2022-09-27T01:01:38.825Z,0.00
2022-09-27T01:02:39.409Z,0.00
2022-09-27T01:03:38.717Z,0.00
2022-09-27T01:04:38.770Z,0.00
2022-09-27T01:05:38.745Z,0.00
2022-09-27T01:06:38.674Z,0.00
2022-09-27T01:07:38.686Z,0.00
2022-09-27T01:08:39.680Z,0.00
2022-09-27T01:09:38.652Z,0.00
2022-09-27T01:10:38.677Z,0.00
2022-09-27T01:11:38.617Z,0.00
2022-09-27T01:12:38.637Z,0.00
2022-09-27T01:13:38.710Z,0.00
2022-09-27T01:14:38.626Z,0.00
2022-09-27T01:15:38.689Z,0.00
2022-09-27T01:16:38.686Z,0.00
2022-09-27T01:17:38.586Z,0.00
2022-09-27T01:18:38.549Z,0.00
2022-09-27T01:19:38.628Z,0.00
2022-09-27T01:20:38.554Z,0.00
2022-09-27T01:21:38.533Z,0.00
2022-09-27T01:22:38.519Z,0.00
2022-09-27T01:23:38.522Z,0.00
2022-09-27T01:24:38.546Z,0.00
2022-09-27T01:25:38.494Z,0.00
2022-09-27T01:26:38.516Z,0.00
2022-09-27T01:27:38.486Z,0.00
2022-09-27T01:28:38.439Z,0.00
2022-09-27T01:29:39.422Z,0.00
2022-09-27T01:30:38.479Z,0.00
2022-09-27T01:31:38.489Z,0.00
2022-09-27T01:32:38.431Z,0.00
2022-09-27T01:33:38.525Z,0.00
2022-09-27T01:34:38.354Z,0.00
2022-09-27T01:35:38.345Z,0.00
2022-09-27T01:36:38.390Z,0.00
2022-09-27T01:37:38.334Z,0.00
2022-09-27T01:38:38.363Z,0.00
2022-09-27T01:39:38.468Z,0.00
2022-09-27T01:40:39.388Z,0.00
2022-09-27T01:41:39.336Z,0.00
2022-09-27T01:42:38.287Z,0.00
2022-09-27T01:43:38.255Z,0.00
2022-09-27T01:44:38.272Z,0.00
2022-09-27T01:45:38.278Z,0.00
2022-09-27T01:46:38.331Z,0.00
2022-09-27T01:47:38.297Z,0.00
2022-09-27T01:48:38.219Z,0.00
2022-09-27T01:49:38.212Z,0.00
2022-09-27T01:50:38.207Z,0.00
2022-09-27T01:51:38.182Z,0.00
2022-09-27T01:52:39.309Z,0.00
2022-09-27T01:53:38.151Z,0.00
2022-09-27T01:54:38.193Z,0.00
2022-09-27T01:55:38.155Z,0.00
2022-09-27T01:56:38.173Z,0.00
2022-09-27T01:57:38.115Z,0.00
2022-09-27T01:58:38.103Z,0.00
2022-09-27T01:59:38.104Z,0.00
2022-09-27T02:00:38.154Z,0.00
2022-09-27T02:01:38.777Z,0.00
2022-09-27T02:02:38.098Z,0.00
2022-09-27T02:03:38.067Z,0.00
2022-09-27T02:04:38.052Z,0.00
2022-09-27T02:05:38.067Z,0.00
2022-09-27T02:06:38.020Z,0.00
2022-09-27T02:07:37.997Z,0.00
2022-09-27T02:08:37.988Z,0.00
2022-09-27T02:09:37.982Z,0.00
2022-09-27T02:10:37.984Z,0.00
2022-09-27T02:11:38.000Z,0.00
2022-09-27T02:12:37.943Z,0.00
2022-09-27T02:13:37.939Z,0.00
2022-09-27T02:14:37.917Z,0.00
2022-09-27T02:15:37.968Z,0.00
2022-09-27T02:16:37.897Z,0.00
2022-09-27T02:17:37.912Z,0.00
2022-09-27T02:18:37.857Z,0.00
2022-09-27T02:19:37.868Z,0.00
2022-09-27T02:20:38.852Z,0.00
2022-09-27T02:21:37.859Z,0.00
2022-09-27T02:22:37.824Z,0.00
2022-09-27T02:23:37.788Z,0.00
2022-09-27T02:24:37.814Z,0.00
2022-09-27T02:25:37.853Z,0.00
2022-09-27T02:26:37.817Z,0.00
2022-09-27T02:27:37.789Z,0.00
2022-09-27T02:28:37.801Z,0.00
2022-09-27T02:29:37.766Z,0.00
2022-09-27T02:30:37.792Z,0.00
2022-09-27T02:31:37.762Z,0.00
2022-09-27T02:32:37.734Z,0.00
2022-09-27T02:33:37.725Z,0.00
2022-09-27T02:34:37.709Z,0.00
2022-09-27T02:35:37.709Z,0.00
2022-09-27T02:36:37.705Z,0.00
2022-09-27T02:37:37.689Z,0.00
2022-09-27T02:38:37.665Z,0.00
2022-09-27T02:39:37.701Z,0.00
2022-09-27T02:40:37.645Z,0.00
2022-09-27T02:41:37.641Z,0.00
2022-09-27T02:42:37.609Z,0.00
2022-09-27T02:43:37.625Z,0.00
2022-09-27T02:44:37.624Z,0.00
2022-09-27T02:45:37.602Z,0.00
2022-09-27T02:46:37.580Z,0.00
2022-09-27T02:47:37.582Z,0.00
2022-09-27T02:48:37.514Z,0.00
2022-09-27T02:49:37.575Z,0.00
2022-09-27T02:50:37.534Z,0.00
2022-09-27T02:51:37.525Z,0.00
2022-09-27T02:52:37.526Z,0.00
2022-09-27T02:53:37.522Z,0.00
2022-09-27T02:54:37.494Z,0.00
2022-09-27T02:55:37.462Z,0.00
2022-09-27T02:56:37.433Z,0.00
2022-09-27T02:57:37.434Z,0.00
2022-09-27T02:58:37.468Z,0.00
2022-09-27T02:59:37.474Z,0.00
2022-09-27T03:00:37.458Z,0.00
2022-09-27T03:01:37.543Z,0.00
2022-09-27T03:02:37.502Z,0.00
2022-09-27T03:03:37.398Z,0.00
2022-09-27T03:04:37.379Z,0.00
2022-09-27T03:05:37.354Z,0.00
2022-09-27T03:06:37.366Z,0.00
2022-09-27T03:07:37.314Z,0.00
2022-09-27T03:08:37.390Z,0.00
2022-09-27T03:09:37.303Z,0.00
2022-09-27T03:10:37.391Z,0.00
2022-09-27T03:11:37.300Z,0.00
2022-09-27T03:12:37.278Z,0.00
2022-09-27T03:13:55.500Z,0.00
2022-09-27T03:14:39.256Z,0.00
2022-09-27T03:15:37.239Z,0.00
2022-09-27T03:16:37.321Z,0.00
2022-09-27T03:17:37.231Z,0.00
2022-09-27T03:18:37.204Z,0.00
2022-09-27T03:19:37.203Z,0.00
2022-09-27T03:20:37.169Z,0.00
2022-09-27T03:21:37.179Z,0.00
2022-09-27T03:22:37.168Z,0.00
2022-09-27T03:23:37.171Z,0.00
2022-09-27T03:24:37.135Z,0.00
2022-09-27T03:25:37.160Z,0.00
2022-09-27T03:26:37.280Z,0.00
2022-09-27T03:27:37.097Z,0.00
2022-09-27T03:28:37.088Z,0.00
2022-09-27T03:29:37.132Z,0.00
2022-09-27T03:30:37.130Z,0.00
2022-09-27T03:31:37.096Z,0.00
2022-09-27T03:32:40.823Z,0.00
2022-09-27T03:33:38.044Z,0.00
2022-09-27T03:34:37.044Z,0.00
2022-09-27T03:35:37.025Z,0.00
2022-09-27T03:36:37.004Z,0.00
2022-09-27T03:37:37.027Z,0.00
2022-09-27T03:38:36.963Z,0.00
2022-09-27T03:39:36.972Z,0.00
2022-09-27T03:40:37.038Z,0.00
2022-09-27T03:41:37.058Z,0.00
2022-09-27T03:42:37.078Z,0.00
2022-09-27T03:43:36.932Z,0.00
2022-09-27T03:44:36.929Z,0.00
2022-09-27T03:45:36.873Z,0.00
2022-09-27T03:46:36.952Z,0.00
2022-09-27T03:47:36.932Z,0.00
2022-09-27T03:48:36.877Z,0.00
2022-09-27T03:49:36.825Z,0.00
2022-09-27T03:50:36.865Z,0.00
2022-09-27T03:51:36.869Z,0.00
2022-09-27T03:52:36.853Z,0.00
2022-09-27T03:53:36.801Z,0.00
2022-09-27T03:54:36.845Z,0.00
2022-09-27T03:55:36.784Z,0.00
2022-09-27T03:56:36.794Z,0.00
2022-09-27T03:57:36.846Z,0.00
2022-09-27T03:58:36.745Z,0.00
2022-09-27T03:59:36.782Z,0.00
2022-09-27T04:00:36.709Z,0.00
2022-09-27T04:01:36.903Z,0.00
2022-09-27T04:02:36.784Z,0.00
2022-09-27T04:03:38.275Z,0.00
2022-09-27T04:04:36.653Z,0.00
2022-09-27T04:05:36.669Z,0.00
2022-09-27T04:06:37.709Z,0.00
2022-09-27T04:07:36.666Z,0.00
2022-09-27T04:08:36.671Z,0.00
2022-09-27T04:09:39.973Z,0.00
2022-09-27T04:10:37.622Z,0.00
2022-09-27T04:11:36.678Z,0.00
2022-09-27T04:12:36.660Z,0.00
2022-09-27T04:13:36.602Z,0.00
2022-09-27T04:14:36.623Z,0.00
2022-09-27T04:15:36.666Z,0.00
2022-09-27T04:16:36.693Z,0.00
2022-09-27T04:17:36.627Z,0.00
2022-09-27T04:18:36.584Z,0.00
2022-09-27T04:19:36.595Z,0.00
2022-09-27T04:20:36.516Z,0.00
2022-09-27T04:21:36.594Z,0.00
2022-09-27T04:22:36.586Z,0.00
2022-09-27T04:23:36.510Z,0.00
2022-09-27T04:24:36.512Z,0.00
2022-09-27T04:25:36.472Z,0.00
2022-09-27T04:26:36.501Z,0.00
2022-09-27T04:27:36.449Z,0.00
2022-09-27T04:28:36.478Z,0.00
2022-09-27T04:29:36.436Z,0.00
2022-09-27T04:30:36.536Z,0.00
2022-09-27T04:31:36.415Z,0.00
2022-09-27T04:32:36.403Z,0.00
2022-09-27T04:33:37.411Z,0.00
2022-09-27T04:34:36.364Z,0.00
2022-09-27T04:35:36.423Z,0.00
2022-09-27T04:36:36.367Z,0.00
2022-09-27T04:37:36.354Z,0.00
2022-09-27T04:38:36.325Z,0.00
2022-09-27T04:39:36.331Z,0.00
2022-09-27T04:40:36.397Z,0.00
2022-09-27T04:41:36.299Z,0.00
2022-09-27T04:42:36.280Z,0.00
2022-09-27T04:43:37.283Z,0.00
2022-09-27T04:44:36.260Z,0.00
2022-09-27T04:45:36.231Z,0.00
2022-09-27T04:46:36.325Z,0.00
2022-09-27T04:47:36.291Z,0.00
2022-09-27T04:48:36.215Z,0.00
2022-09-27T04:49:36.215Z,0.00
2022-09-27T04:50:36.664Z,0.00
2022-09-27T04:51:36.191Z,0.00
2022-09-27T04:52:36.219Z,0.00
2022-09-27T04:53:36.121Z,0.00
2022-09-27T04:54:36.160Z,0.00
2022-09-27T04:55:36.139Z,0.00
2022-09-27T04:56:36.107Z,0.00
2022-09-27T04:57:36.132Z,0.00
2022-09-27T04:58:36.084Z,0.00
2022-09-27T04:59:36.144Z,0.00
2022-09-27T05:00:36.074Z,0.00
2022-09-27T05:01:36.101Z,0.00
2022-09-27T05:02:36.191Z,0.00
2022-09-27T05:03:36.084Z,4.00
2022-09-27T05:04:36.119Z,0.00
2022-09-27T05:05:36.073Z,0.00
2022-09-27T05:06:36.057Z,0.00
2022-09-27T05:07:36.012Z,0.00
2022-09-27T05:08:35.973Z,4.00
2022-09-27T05:09:35.989Z,4.00
2022-09-27T05:10:36.985Z,4.00
2022-09-27T05:11:35.965Z,4.00
2022-09-27T05:12:35.939Z,4.00
2022-09-27T05:13:36.017Z,4.00
2022-09-27T05:14:35.946Z,4.00
2022-09-27T05:15:35.921Z,8.00
2022-09-27T05:16:36.024Z,8.00
2022-09-27T05:17:35.894Z,8.00
2022-09-27T05:18:35.896Z,12.00
2022-09-27T05:19:35.962Z,8.00
2022-09-27T05:20:35.893Z,12.00
2022-09-27T05:21:35.869Z,12.00
2022-09-27T05:22:35.822Z,16.00
2022-09-27T05:23:35.841Z,16.00
2022-09-27T05:24:35.801Z,20.00
2022-09-27T05:25:35.812Z,20.00
2022-09-27T05:26:35.838Z,20.00
2022-09-27T05:27:35.777Z,20.00
2022-09-27T05:28:35.770Z,16.00
2022-09-27T05:29:35.783Z,16.00
2022-09-27T05:30:35.799Z,20.00
2022-09-27T05:31:35.790Z,20.00
2022-09-27T05:32:35.858Z,28.00
2022-09-27T05:33:35.705Z,40.00
2022-09-27T05:34:35.692Z,48.00
2022-09-27T05:35:35.692Z,52.00
2022-09-27T05:36:35.751Z,44.00
2022-09-27T05:37:35.690Z,56.00
2022-09-27T05:38:35.651Z,64.00
2022-09-27T05:39:35.658Z,68.00
2022-09-27T05:40:41.141Z,72.00
2022-09-27T05:41:37.780Z,76.00
2022-09-27T05:42:35.630Z,76.00
2022-09-27T05:43:35.576Z,84.00
2022-09-27T05:44:35.614Z,80.00
2022-09-27T05:45:35.569Z,88.00
2022-09-27T05:46:35.666Z,80.00
2022-09-27T05:47:35.566Z,84.00
2022-09-27T05:48:35.576Z,92.00
2022-09-27T05:49:35.538Z,88.00
2022-09-27T05:50:35.592Z,92.00
2022-09-27T05:51:35.539Z,92.00
2022-09-27T05:52:35.527Z,108.00
2022-09-27T05:53:35.489Z,116.00
2022-09-27T05:54:35.490Z,112.00
2022-09-27T05:55:35.465Z,108.00
2022-09-27T05:56:35.440Z,128.00
2022-09-27T05:57:35.443Z,136.00
2022-09-27T05:58:35.430Z,136.00
2022-09-27T05:59:35.405Z,132.00
2022-09-27T06:00:35.435Z,116.00
2022-09-27T06:01:35.508Z,116.00
2022-09-27T06:02:35.454Z,124.00
2022-09-27T06:03:35.352Z,116.00
2022-09-27T06:04:35.340Z,136.00
2022-09-27T06:05:35.343Z,120.00
2022-09-27T06:06:35.392Z,140.00
2022-09-27T06:07:35.308Z,180.00
2022-09-27T06:08:35.317Z,164.00
2022-09-27T06:09:35.307Z,168.00
2022-09-27T06:10:35.306Z,176.00
2022-09-27T06:11:35.296Z,180.00
2022-09-27T06:12:35.292Z,200.00
2022-09-27T06:13:35.260Z,204.00
2022-09-27T06:14:35.248Z,236.00
2022-09-27T06:15:35.231Z,256.00
2022-09-27T06:16:35.267Z,244.00
2022-09-27T06:17:35.225Z,204.00
2022-09-27T06:18:35.280Z,188.00
2022-09-27T06:19:35.218Z,176.00
2022-09-27T06:20:35.201Z,196.00
2022-09-27T06:21:35.200Z,220.00
2022-09-27T06:22:35.166Z,224.00
2022-09-27T06:23:35.196Z,220.00
2022-09-27T06:24:35.172Z,212.00
2022-09-27T06:25:35.164Z,168.00
2022-09-27T06:26:35.130Z,180.00
2022-09-27T06:27:35.144Z,188.00
2022-09-27T06:28:35.078Z,232.00
2022-09-27T06:29:35.049Z,232.00
2022-09-27T06:30:35.090Z,244.00
2022-09-27T06:31:35.093Z,264.00
2022-09-27T06:32:35.063Z,228.00
2022-09-27T06:33:35.789Z,208.00
2022-09-27T06:34:35.128Z,192.00
2022-09-27T06:35:35.023Z,180.00
2022-09-27T06:36:34.995Z,168.00
2022-09-27T06:37:34.988Z,160.00
2022-09-27T06:38:34.941Z,184.00
2022-09-27T06:39:34.946Z,192.00
2022-09-27T06:40:35.040Z,216.00
2022-09-27T06:41:34.937Z,240.00
2022-09-27T06:42:34.940Z,220.00
2022-09-27T06:43:34.888Z,232.00
2022-09-27T06:44:34.949Z,208.00
2022-09-27T06:45:34.914Z,228.00
2022-09-27T06:46:34.874Z,288.00
2022-09-27T06:47:35.842Z,344.00
2022-09-27T06:48:34.874Z,392.00
2022-09-27T06:49:34.821Z,416.00
2022-09-27T06:50:34.824Z,488.00
2022-09-27T06:51:34.817Z,524.00
2022-09-27T06:52:34.806Z,420.00
2022-09-27T06:53:34.807Z,380.00
2022-09-27T06:54:34.771Z,400.00
2022-09-27T06:55:34.810Z,404.00
2022-09-27T06:56:34.786Z,456.00
2022-09-27T06:57:35.822Z,488.00
2022-09-27T06:58:34.734Z,440.00
2022-09-27T06:59:34.721Z,420.00
2022-09-27T07:00:34.706Z,364.00
2022-09-27T07:01:34.796Z,336.00
2022-09-27T07:02:34.706Z,376.00
2022-09-27T07:03:40.122Z,364.00
2022-09-27T07:04:36.677Z,396.00
2022-09-27T07:05:34.663Z,368.00
2022-09-27T07:06:34.658Z,344.00
2022-09-27T07:07:34.668Z,340.00
2022-09-27T07:08:34.634Z,384.00
2022-09-27T07:09:34.614Z,376.00
2022-09-27T07:10:34.613Z,448.00
2022-09-27T07:11:34.594Z,468.00
2022-09-27T07:12:34.567Z,508.00
2022-09-27T07:13:34.653Z,580.00
2022-09-27T07:14:35.608Z,808.00
2022-09-27T07:15:34.551Z,732.00
2022-09-27T07:16:34.559Z,588.00
2022-09-27T07:17:34.550Z,632.00
2022-09-27T07:18:34.550Z,660.00
2022-09-27T07:19:34.539Z,644.00
2022-09-27T07:20:34.475Z,788.00
2022-09-27T07:21:34.534Z,516.00
2022-09-27T07:22:34.498Z,300.00
2022-09-27T07:23:34.458Z,308.00
2022-09-27T07:24:34.451Z,348.00
2022-09-27T07:25:34.423Z,416.00
2022-09-27T07:26:34.411Z,388.00
2022-09-27T07:27:37.087Z,628.00
2022-09-27T07:28:34.446Z,732.00
2022-09-27T07:29:34.409Z,620.00
2022-09-27T07:30:35.233Z,476.00
2022-09-27T07:31:34.493Z,424.00
2022-09-27T07:32:34.424Z,524.00
2022-09-27T07:33:34.355Z,700.00
2022-09-27T07:34:34.349Z,736.00
2022-09-27T07:35:34.346Z,632.00
2022-09-27T07:36:34.327Z,620.00
2022-09-27T07:37:34.308Z,552.00
2022-09-27T07:38:34.320Z,720.00
2022-09-27T07:39:34.284Z,836.00
2022-09-27T07:40:34.332Z,936.00
2022-09-27T07:41:34.268Z,828.00
2022-09-27T07:42:34.244Z,776.00
2022-09-27T07:43:34.285Z,900.00
2022-09-27T07:44:34.242Z,864.00
2022-09-27T07:45:34.547Z,676.00
2022-09-27T07:46:34.192Z,488.00
2022-09-27T07:47:34.218Z,508.00
2022-09-27T07:48:34.227Z,504.00
2022-09-27T07:49:34.264Z,424.00
2022-09-27T07:50:34.143Z,424.00
2022-09-27T07:51:34.176Z,408.00
2022-09-27T07:52:34.132Z,488.00
2022-09-27T07:53:34.169Z,404.00
2022-09-27T07:54:34.224Z,496.00
2022-09-27T07:55:34.112Z,536.00
2022-09-27T07:56:34.168Z,520.00
2022-09-27T07:57:34.147Z,488.00
2022-09-27T07:58:34.112Z,576.00
2022-09-27T07:59:34.141Z,624.00
2022-09-27T08:00:34.109Z,768.00
2022-09-27T08:01:34.098Z,1088.00
2022-09-27T08:02:34.197Z,716.00
2022-09-27T08:03:34.026Z,832.00
2022-09-27T08:04:34.073Z,880.00
2022-09-27T08:05:34.025Z,664.00
2022-09-27T08:06:34.040Z,736.00
2022-09-27T08:07:33.996Z,700.00
2022-09-27T08:08:34.021Z,700.00
2022-09-27T08:09:33.957Z,864.00
2022-09-27T08:10:34.004Z,708.00
2022-09-27T08:11:33.959Z,776.00
2022-09-27T08:12:33.950Z,748.00
2022-09-27T08:13:33.921Z,844.00
2022-09-27T08:14:36.539Z,796.00
2022-09-27T08:15:34.877Z,816.00
2022-09-27T08:16:33.898Z,1036.00
2022-09-27T08:17:33.844Z,1192.00
2022-09-27T08:18:33.881Z,1376.00
2022-09-27T08:19:33.826Z,1540.00
2022-09-27T08:20:33.873Z,1356.00
2022-09-27T08:21:33.862Z,1240.00
2022-09-27T08:22:33.798Z,1152.00
2022-09-27T08:23:33.773Z,1436.00
2022-09-27T08:24:33.801Z,1704.00
2022-09-27T08:25:33.779Z,1220.00
2022-09-27T08:26:33.756Z,1408.00
2022-09-27T08:27:33.756Z,1308.00
2022-09-27T08:28:33.729Z,1476.00
2022-09-27T08:29:33.750Z,1456.00
2022-09-27T08:30:33.751Z,1052.00
2022-09-27T08:31:33.747Z,1304.00
2022-09-27T08:32:33.685Z,1288.00
2022-09-27T08:33:39.139Z,1236.00
2022-09-27T08:34:33.714Z,1824.00
2022-09-27T08:35:33.716Z,1608.00
2022-09-27T08:36:33.675Z,1468.00
2022-09-27T08:37:33.859Z,1104.00
2022-09-27T08:38:33.618Z,1132.00
2022-09-27T08:39:34.048Z,1112.00
2022-09-27T08:40:33.630Z,680.00
2022-09-27T08:41:33.747Z,536.00
2022-09-27T08:42:33.759Z,772.00
2022-09-27T08:43:33.579Z,672.00
2022-09-27T08:44:33.608Z,572.00
2022-09-27T08:45:33.638Z,600.00
2022-09-27T08:46:33.611Z,500.00
2022-09-27T08:47:33.556Z,560.00
2022-09-27T08:48:33.587Z,688.00
2022-09-27T08:49:33.551Z,448.00
2022-09-27T08:50:38.996Z,480.00
2022-09-27T08:51:35.463Z,564.00
2022-09-27T08:52:33.523Z,724.00
2022-09-27T08:53:33.572Z,724.00
2022-09-27T08:54:33.475Z,840.00
2022-09-27T08:55:33.559Z,840.00
2022-09-27T08:56:33.431Z,752.00
2022-09-27T08:57:33.475Z,812.00
2022-09-27T08:58:33.472Z,1276.00
2022-09-27T08:59:33.476Z,1236.00
2022-09-27T09:00:33.452Z,1132.00
2022-09-27T09:01:33.425Z,1036.00
2022-09-27T09:02:33.424Z,948.00
2022-09-27T09:03:33.356Z,860.00
2022-09-27T09:04:33.430Z,924.00
2022-09-27T09:05:33.352Z,920.00
2022-09-27T09:06:33.343Z,0.00
2022-09-27T09:07:33.354Z,900.00
2022-09-27T09:08:33.288Z,960.00
2022-09-27T09:09:33.300Z,668.00
2022-09-27T09:10:33.323Z,796.00
2022-09-27T09:11:33.304Z,1108.00
2022-09-27T09:12:33.321Z,1268.00
2022-09-27T09:13:33.316Z,1352.00
2022-09-27T09:14:33.250Z,1340.00
2022-09-27T09:15:33.300Z,1060.00
2022-09-27T09:16:33.264Z,996.00
2022-09-27T09:17:33.228Z,1048.00
2022-09-27T09:18:33.258Z,1224.00
2022-09-27T09:19:33.214Z,960.00
2022-09-27T09:20:33.253Z,1140.00
2022-09-27T09:21:33.177Z,1468.00
2022-09-27T09:22:33.196Z,1084.00
2022-09-27T09:23:33.137Z,1004.00
2022-09-27T09:24:33.148Z,896.00
2022-09-27T09:25:33.273Z,876.00
2022-09-27T09:26:33.109Z,788.00
2022-09-27T09:27:33.173Z,796.00
2022-09-27T09:28:33.177Z,1024.00
2022-09-27T09:29:33.119Z,908.00
2022-09-27T09:30:33.085Z,812.00
2022-09-27T09:31:33.058Z,876.00
2022-09-27T09:32:33.069Z,820.00
2022-09-27T09:33:33.125Z,812.00
2022-09-27T09:34:33.033Z,876.00
2022-09-27T09:35:33.037Z,924.00
2022-09-27T09:36:33.044Z,980.00
2022-09-27T09:37:33.027Z,896.00
2022-09-27T09:38:33.029Z,1168.00
2022-09-27T09:39:33.025Z,1652.00
2022-09-27T09:40:33.026Z,1452.00
2022-09-27T09:41:32.973Z,1508.00
2022-09-27T09:42:33.182Z,1336.00
2022-09-27T09:43:33.093Z,1412.00
2022-09-27T09:44:32.978Z,1676.00
2022-09-27T09:45:32.992Z,1656.00
2022-09-27T09:46:33.846Z,1616.00
2022-09-27T09:47:32.884Z,1628.00
2022-09-27T09:48:32.889Z,1836.00
2022-09-27T09:49:32.914Z,1976.00
2022-09-27T09:50:32.882Z,1916.00
2022-09-27T09:51:32.867Z,2484.00
2022-09-27T09:52:32.926Z,2020.00
2022-09-27T09:53:32.813Z,2072.00
2022-09-27T09:54:32.895Z,2140.00
2022-09-27T09:55:32.783Z,1860.00
2022-09-27T09:56:32.807Z,1668.00
2022-09-27T09:57:32.920Z,1644.00
2022-09-27T09:58:32.766Z,1640.00
2022-09-27T09:59:32.755Z,1528.00
2022-09-27T10:00:32.772Z,1556.00
2022-09-27T10:01:32.741Z,1488.00
2022-09-27T10:02:32.850Z,1496.00
2022-09-27T10:03:32.716Z,1296.00
2022-09-27T10:04:32.740Z,928.00
2022-09-27T10:05:32.706Z,720.00
2022-09-27T10:06:32.811Z,688.00
2022-09-27T10:07:32.664Z,676.00
2022-09-27T10:08:32.673Z,740.00
2022-09-27T10:09:32.635Z,628.00
2022-09-27T10:10:32.623Z,548.00
2022-09-27T10:11:33.775Z,608.00
2022-09-27T10:12:32.675Z,872.00
2022-09-27T10:13:32.640Z,1128.00
2022-09-27T10:14:32.584Z,860.00
2022-09-27T10:15:32.607Z,1100.00
2022-09-27T10:16:32.651Z,1112.00
2022-09-27T10:17:32.535Z,1204.00
2022-09-27T10:18:32.599Z,1456.00
2022-09-27T10:19:32.509Z,1344.00
2022-09-27T10:20:32.538Z,1268.00
2022-09-27T10:21:32.506Z,1220.00
2022-09-27T10:22:32.519Z,1152.00
2022-09-27T10:23:32.459Z,1236.00
2022-09-27T10:24:32.468Z,1000.00
2022-09-27T10:25:32.471Z,744.00
2022-09-27T10:26:32.440Z,644.00
2022-09-27T10:27:32.420Z,660.00
2022-09-27T10:28:32.489Z,472.00
2022-09-27T10:29:36.990Z,400.00
2022-09-27T10:30:34.487Z,420.00
2022-09-27T10:31:32.427Z,416.00
2022-09-27T10:32:32.505Z,608.00
2022-09-27T10:33:32.380Z,596.00
2022-09-27T10:34:32.342Z,700.00
2022-09-27T10:35:32.359Z,860.00
2022-09-27T10:36:32.452Z,964.00
2022-09-27T10:37:32.317Z,1220.00
2022-09-27T10:38:32.329Z,1264.00
2022-09-27T10:39:32.468Z,1752.00
2022-09-27T10:40:32.440Z,2416.00
2022-09-27T10:41:32.301Z,2392.00
2022-09-27T10:42:32.349Z,2284.00
2022-09-27T10:43:32.316Z,3040.00
2022-09-27T10:44:32.247Z,2672.00
2022-09-27T10:45:32.285Z,2980.00
2022-09-27T10:46:32.236Z,2708.00
2022-09-27T10:47:32.236Z,2784.00
2022-09-27T10:48:32.222Z,2532.00
2022-09-27T10:49:32.192Z,4240.00
2022-09-27T10:50:50.263Z,2164.00
2022-09-27T10:51:34.172Z,2960.00
2022-09-27T10:52:32.201Z,2436.00
2022-09-27T10:53:32.227Z,2204.00
2022-09-27T10:54:32.158Z,2280.00
2022-09-27T10:55:32.129Z,2152.00
2022-09-27T10:56:32.145Z,2288.00
2022-09-27T10:57:32.146Z,4196.00
2022-09-27T10:58:32.138Z,3132.00
2022-09-27T10:59:32.161Z,2264.00
2022-09-27T11:00:32.090Z,2288.00
2022-09-27T11:01:32.070Z,2552.00
2022-09-27T11:02:32.362Z,2684.00
2022-09-27T11:03:32.121Z,2380.00
2022-09-27T11:04:32.077Z,2492.00
2022-09-27T11:05:32.761Z,2744.00
2022-09-27T11:06:32.014Z,2044.00
2022-09-27T11:07:32.002Z,2632.00
2022-09-27T11:08:32.010Z,2100.00
2022-09-27T11:09:32.094Z,3108.00
2022-09-27T11:10:36.367Z,2004.00
2022-09-27T11:11:34.038Z,2364.00
2022-09-27T11:12:31.965Z,1960.00
2022-09-27T11:13:32.010Z,2220.00
2022-09-27T11:14:31.970Z,2076.00
2022-09-27T11:15:31.947Z,2248.00
2022-09-27T11:16:32.017Z,3232.00
2022-09-27T11:17:31.902Z,2476.00
2022-09-27T11:18:31.863Z,1852.00
2022-09-27T11:19:32.642Z,1540.00
2022-09-27T11:20:31.896Z,1444.00
2022-09-27T11:21:31.795Z,1328.00
2022-09-27T11:22:31.834Z,1372.00
2022-09-27T11:23:31.830Z,1224.00
2022-09-27T11:24:31.862Z,1460.00
2022-09-27T11:25:32.161Z,1460.00
2022-09-27T11:26:32.792Z,1556.00
2022-09-27T11:27:31.771Z,1788.00
2022-09-27T11:28:31.804Z,2176.00
2022-09-27T11:29:31.733Z,1484.00
2022-09-27T11:30:31.761Z,1440.00
2022-09-27T11:31:31.767Z,1272.00
2022-09-27T11:32:31.716Z,1196.00
2022-09-27T11:33:32.332Z,1236.00
2022-09-27T11:34:31.707Z,1560.00
2022-09-27T11:35:31.692Z,1268.00
2022-09-27T11:36:31.719Z,1060.00
2022-09-27T11:37:31.666Z,1088.00
2022-09-27T11:38:53.061Z,1080.00
2022-09-27T11:39:33.644Z,728.00
2022-09-27T11:40:31.753Z,892.00
2022-09-27T11:41:31.588Z,912.00
2022-09-27T11:42:31.632Z,1156.00
2022-09-27T11:43:31.595Z,1700.00
2022-09-27T11:44:31.585Z,1540.00
2022-09-27T11:45:50.327Z,1872.00
2022-09-27T11:46:41.364Z,2156.00
2022-09-27T11:47:32.648Z,1996.00
2022-09-27T11:48:31.521Z,2392.00
2022-09-27T11:49:31.560Z,2184.00
2022-09-27T11:50:31.517Z,2256.00
2022-09-27T11:51:31.495Z,2168.00
2022-09-27T11:52:31.493Z,2664.00
2022-09-27T11:53:31.486Z,2152.00
2022-09-27T11:54:31.474Z,2096.00
2022-09-27T11:55:31.457Z,2972.00
2022-09-27T11:56:31.477Z,2440.00
2022-09-27T11:57:31.434Z,2096.00
2022-09-27T11:58:31.425Z,2504.00
2022-09-27T11:59:31.453Z,2716.00
2022-09-27T12:00:31.609Z,2348.00
2022-09-27T12:01:31.500Z,2228.00
2022-09-27T12:02:31.493Z,3016.00
2022-09-27T12:03:31.400Z,2524.00
2022-09-27T12:04:31.328Z,2024.00
2022-09-27T12:05:31.377Z,1860.00
2022-09-27T12:06:31.344Z,3144.00
2022-09-27T12:07:31.305Z,1956.00
2022-09-27T12:08:31.363Z,1800.00
2022-09-27T12:09:31.330Z,5956.00
2022-09-27T12:10:31.302Z,2048.00
2022-09-27T12:11:31.274Z,1868.00
2022-09-27T12:12:31.243Z,2676.00
2022-09-27T12:13:31.273Z,1588.00
2022-09-27T12:14:38.733Z,1808.00
2022-09-27T12:15:32.458Z,1960.00
2022-09-27T12:16:31.246Z,2060.00
2022-09-27T12:17:31.186Z,1812.00
2022-09-27T12:18:31.211Z,1636.00
2022-09-27T12:19:31.180Z,1884.00
2022-09-27T12:20:31.184Z,2020.00
2022-09-27T12:21:31.150Z,1372.00
2022-09-27T12:22:57.043Z,1240.00
2022-09-27T12:23:36.605Z,1308.00
2022-09-27T12:24:32.122Z,1344.00
2022-09-27T12:25:31.093Z,1228.00
2022-09-27T12:26:31.105Z,1240.00
2022-09-27T12:27:31.081Z,1476.00
2022-09-27T12:28:31.169Z,2036.00
2022-09-27T12:29:31.242Z,1732.00
2022-09-27T12:30:31.096Z,2148.00
2022-09-27T12:31:31.142Z,2052.00
2022-09-27T12:32:31.105Z,2264.00
2022-09-27T12:33:31.046Z,2636.00
2022-09-27T12:34:31.079Z,1968.00
2022-09-27T12:35:30.992Z,2256.00
2022-09-27T12:36:34.860Z,2188.00
2022-09-27T12:37:31.992Z,2304.00
2022-09-27T12:38:31.058Z,0.00
2022-09-27T12:39:30.955Z,2700.00
2022-09-27T12:40:30.999Z,2904.00
2022-09-27T12:41:30.956Z,2344.00
2022-09-27T12:42:30.950Z,2212.00
2022-09-27T12:43:30.931Z,6556.00